Time;durP1;ratioP1;P1;durP2;ratioP2;P2;SDS_P1;SDS_P2;PMS_P1;PMS_P2;Temp;Humidity;BMP_temperature;BMP_pressure;BME280_temperature;BME280_humidity;BME280_pressure;Samples;Min_cycle;Max_cycle;Signal;HPM_P1;HPM_P2
2023/06/28 00:01:43;;;;;;;6.37;2.33;;;20.00;99.90;;;;;;7286516;19;20196;-78
2023/06/28 00:04:09;;;;;;;5.93;2.30;;;20.00;99.90;;;;;;7285822;19;20688;-78
2023/06/28 00:06:35;;;;;;;6.53;2.50;;;19.90;99.90;;;;;;7286049;19;20191;-77
2023/06/28 00:09:01;;;;;;;6.43;2.33;;;19.60;99.90;;;;;;7285064;19;20189;-76
2023/06/28 00:11:27;;;;;;;9.53;2.50;;;19.30;99.90;;;;;;7283864;19;20931;-77
2023/06/28 00:13:53;;;;;;;8.90;2.50;;;19.10;99.90;;;;;;7304447;19;20534;-77
2023/06/28 00:16:19;;;;;;;7.87;2.63;;;19.20;99.90;;;;;;7282684;19;20210;-77
2023/06/28 00:18:45;;;;;;;8.47;2.70;;;19.20;99.90;;;;;;7283913;19;20194;-77
2023/06/28 00:21:14;;;;;;;7.60;2.47;;;19.20;99.90;;;;;;7281707;19;20179;-77
2023/06/28 00:23:40;;;;;;;8.33;2.70;;;19.20;99.90;;;;;;7285336;19;20189;-77
2023/06/28 00:26:06;;;;;;;7.60;2.50;;;19.30;99.90;;;;;;7285535;19;20190;-78
2023/06/28 00:28:32;;;;;;;8.10;2.50;;;19.30;99.90;;;;;;7285214;19;20252;-77
2023/06/28 00:30:57;;;;;;;9.90;2.57;;;19.50;99.90;;;;;;7283573;19;20200;-77
2023/06/28 00:33:24;;;;;;;5.30;2.40;;;19.50;99.90;;;;;;7304754;19;20609;-78
2023/06/28 00:35:49;;;;;;;7.90;2.60;;;19.60;99.90;;;;;;7283499;19;20188;-78
2023/06/28 00:38:15;;;;;;;9.80;2.53;;;19.60;99.90;;;;;;7283278;19;20200;-78
2023/06/28 00:40:41;;;;;;;7.23;2.60;;;19.50;99.90;;;;;;7283940;19;20192;-78
2023/06/28 00:43:07;;;;;;;8.80;2.60;;;19.50;99.90;;;;;;7283367;19;20567;-78
2023/06/28 00:45:33;;;;;;;7.00;2.77;;;19.60;99.90;;;;;;7285152;19;20204;-78
2023/06/28 00:47:59;;;;;;;9.53;2.53;;;19.50;99.90;;;;;;7285000;19;20178;-77
2023/06/28 00:50:27;;;;;;;8.27;2.70;;;19.50;99.90;;;;;;7282272;19;20558;-78
2023/06/28 00:52:53;;;;;;;8.80;2.60;;;19.40;99.90;;;;;;7306090;19;20188;-78
2023/06/28 00:55:21;;;;;;;7.37;2.60;;;19.40;99.90;;;;;;7284484;19;20189;-79
2023/06/28 00:57:47;;;;;;;7.20;2.60;;;19.30;99.90;;;;;;7283358;19;20199;-78
2023/06/28 01:00:14;;;;;;;9.70;2.83;;;19.10;99.90;;;;;;7282681;19;20251;-78
2023/06/28 01:02:41;;;;;;;5.70;2.40;;;19.10;99.90;;;;;;7283751;19;20195;-78
2023/06/28 01:05:10;;;;;;;7.27;2.53;;;19.10;99.90;;;;;;7283588;19;20549;-78
2023/06/28 01:07:37;;;;;;;7.60;3.07;;;19.10;99.90;;;;;;7282818;19;20189;-78
2023/06/28 01:10:04;;;;;;;8.17;3.10;;;19.10;99.90;;;;;;7282615;19;20202;-78
2023/06/28 01:12:30;;;;;;;9.47;2.70;;;19.10;99.90;;;;;;7281681;19;20188;-78
2023/06/28 01:14:56;;;;;;;10.60;2.60;;;19.10;99.90;;;;;;7291835;19;20207;-77
2023/06/28 01:17:22;;;;;;;8.93;2.50;;;19.10;99.90;;;;;;7305987;19;20187;-78
2023/06/28 01:19:48;;;;;;;7.27;2.50;;;19.10;99.90;;;;;;7282289;19;20638;-78
2023/06/28 01:22:14;;;;;;;8.03;2.90;;;19.10;99.90;;;;;;7282766;19;20191;-78
2023/06/28 01:24:41;;;;;;;8.80;2.70;;;19.10;99.90;;;;;;7283020;19;20268;-78
2023/06/28 01:27:10;;;;;;;9.33;3.00;;;18.80;99.90;;;;;;7281771;19;20190;-78
2023/06/28 01:29:36;;;;;;;8.17;3.10;;;18.70;99.90;;;;;;7280988;19;20193;-77
2023/06/28 01:32:04;;;;;;;9.83;2.90;;;18.70;99.90;;;;;;7282128;19;20514;-78
2023/06/28 01:34:30;;;;;;;8.80;3.30;;;18.70;99.90;;;;;;7281976;19;20192;-77
2023/06/28 01:36:59;;;;;;;8.40;2.90;;;18.60;99.90;;;;;;7294353;19;20658;-78
2023/06/28 01:39:26;;;;;;;11.27;3.63;;;18.50;99.90;;;;;;7302731;19;20247;-77
2023/06/28 01:41:53;;;;;;;9.63;3.10;;;18.60;99.90;;;;;;7303827;19;20273;-78
2023/06/28 01:44:19;;;;;;;7.57;2.87;;;18.70;99.90;;;;;;7281275;19;20189;-78
2023/06/28 01:46:46;;;;;;;10.13;3.20;;;18.60;99.90;;;;;;7286500;19;20188;-78
2023/06/28 01:49:12;;;;;;;9.67;3.13;;;18.60;99.90;;;;;;7288952;19;20582;-77
2023/06/28 01:51:39;;;;;;;10.07;2.73;;;18.50;99.90;;;;;;7287367;19;20185;-78
2023/06/28 01:54:05;;;;;;;9.70;2.70;;;18.50;99.90;;;;;;7288204;19;20196;-78
2023/06/28 01:56:31;;;;;;;11.00;3.10;;;18.50;99.90;;;;;;7286708;19;20200;-78
2023/06/28 01:58:57;;;;;;;8.77;2.70;;;18.50;99.90;;;;;;7286729;19;20185;-78
2023/06/28 02:01:22;;;;;;;10.07;3.00;;;18.50;99.90;;;;;;7308437;19;20183;-78
2023/06/28 02:03:48;;;;;;;8.43;2.73;;;18.40;99.90;;;;;;7288520;19;20400;-77
2023/06/28 02:06:15;;;;;;;8.33;2.93;;;18.30;99.90;;;;;;7288482;19;20192;-77
2023/06/28 02:08:41;;;;;;;9.90;2.50;;;18.20;99.90;;;;;;7287500;19;20260;-77
2023/06/28 02:11:07;;;;;;;10.27;2.90;;;18.20;99.90;;;;;;7285430;19;20565;-78
2023/06/28 02:13:33;;;;;;;10.17;3.10;;;18.00;99.90;;;;;;7288714;19;20185;-77
2023/06/28 02:15:58;;;;;;;8.00;2.40;;;18.00;99.90;;;;;;7287341;19;21141;-78
2023/06/28 02:18:27;;;;;;;10.20;3.07;;;18.00;99.90;;;;;;7309120;19;20204;-78
2023/06/28 02:20:53;;;;;;;7.10;2.63;;;17.90;99.90;;;;;;7291807;19;20633;-78
2023/06/28 02:23:19;;;;;;;7.27;2.80;;;17.90;99.90;;;;;;7292804;19;20185;-77
2023/06/28 02:25:45;;;;;;;8.03;3.07;;;18.00;99.90;;;;;;7292304;19;20194;-78
2023/06/28 02:28:11;;;;;;;10.67;3.30;;;18.10;99.90;;;;;;7294041;19;20605;-78
2023/06/28 02:30:36;;;;;;;8.93;3.13;;;18.10;99.90;;;;;;7287633;19;20193;-78
2023/06/28 02:33:02;;;;;;;9.73;2.87;;;18.10;99.90;;;;;;7286577;19;20196;-78
2023/06/28 02:35:28;;;;;;;8.43;2.93;;;18.10;99.90;;;;;;7287527;19;20192;-78
2023/06/28 02:37:54;;;;;;;7.90;2.57;;;18.10;99.90;;;;;;7308979;19;20702;-78
2023/06/28 02:40:21;;;;;;;8.33;2.43;;;18.00;99.90;;;;;;7287034;19;20202;-77
2023/06/28 02:42:47;;;;;;;7.97;2.80;;;18.00;99.90;;;;;;7287286;19;20189;-78
2023/06/28 02:45:12;;;;;;;10.63;2.80;;;18.00;99.90;;;;;;7286092;19;20192;-78
2023/06/28 02:47:38;;;;;;;8.50;2.90;;;18.00;99.90;;;;;;7287278;19;20632;-78
2023/06/28 02:50:06;;;;;;;8.23;2.47;;;18.00;99.90;;;;;;7286189;19;20196;-77
2023/06/28 02:52:38;;;;;;;7.57;2.40;;;18.00;99.90;;;;;;7285659;19;20959;-78
2023/06/28 02:55:07;;;;;;;9.40;2.80;;;18.00;99.90;;;;;;7285709;19;20192;-78
2023/06/28 02:57:33;;;;;;;7.07;2.63;;;18.10;99.90;;;;;;7285719;19;20698;-78
2023/06/28 03:00:08;;;;;;;9.53;2.67;;;18.00;99.90;;;;;;7286517;19;20195;-78
2023/06/28 03:02:34;;;;;;;8.57;2.60;;;18.00;99.90;;;;;;7286070;19;20200;-78
2023/06/28 03:05:00;;;;;;;8.27;3.07;;;18.20;99.90;;;;;;7285418;19;20202;-77
2023/06/28 03:07:28;;;;;;;10.07;3.00;;;18.30;99.90;;;;;;7286533;19;20693;-79
2023/06/28 03:09:54;;;;;;;6.10;2.47;;;18.20;99.90;;;;;;7309288;19;20189;-77
2023/06/28 03:12:20;;;;;;;8.53;2.70;;;18.30;99.90;;;;;;7286323;19;20270;-78
2023/06/28 03:14:46;;;;;;;6.13;2.30;;;18.40;99.90;;;;;;7285622;19;20179;-78
2023/06/28 03:17:12;;;;;;;8.17;2.80;;;18.50;99.90;;;;;;7208022;19;20191;-77
2023/06/28 03:19:38;;;;;;;8.90;2.47;;;18.70;99.90;;;;;;7285529;19;20200;-78
2023/06/28 03:22:04;;;;;;;6.93;2.47;;;18.80;99.90;;;;;;7285341;19;20196;-78
2023/06/28 03:24:29;;;;;;;8.50;3.00;;;18.70;99.90;;;;;;7286158;19;20196;-77
2023/06/28 03:26:55;;;;;;;8.67;3.07;;;18.60;99.90;;;;;;7300997;19;20301;-78
2023/06/28 03:29:22;;;;;;;6.43;2.50;;;18.60;99.90;;;;;;7306097;19;20187;-78
2023/06/28 03:31:48;;;;;;;7.30;2.80;;;18.60;99.90;;;;;;7285544;19;20195;-78
2023/06/28 03:34:16;;;;;;;6.53;2.50;;;18.70;99.90;;;;;;7284168;19;20207;-78
2023/06/28 03:36:43;;;;;;;6.97;2.50;;;18.80;99.90;;;;;;7286120;19;20856;-78
2023/06/28 03:39:09;;;;;;;7.27;2.40;;;18.90;99.90;;;;;;7285107;19;20191;-78
2023/06/28 03:41:35;;;;;;;9.30;2.43;;;19.10;99.90;;;;;;7285153;19;20335;-78
2023/06/28 03:44:01;;;;;;;7.33;2.73;;;19.10;99.90;;;;;;7284508;19;20195;-78
2023/06/28 03:46:27;;;;;;;9.23;2.53;;;19.30;99.90;;;;;;7284158;19;20205;-78
2023/06/28 03:48:53;;;;;;;8.53;2.63;;;19.30;99.90;;;;;;7306404;19;20181;-78
2023/06/28 03:51:19;;;;;;;8.30;2.70;;;19.30;99.90;;;;;;7284440;19;20185;-77
2023/06/28 03:53:44;;;;;;;11.97;2.93;;;19.30;99.90;;;;;;7284301;19;20189;-78
2023/06/28 03:56:10;;;;;;;7.80;2.73;;;19.20;99.90;;;;;;7285592;19;20204;-78
2023/06/28 03:58:36;;;;;;;8.13;2.47;;;19.20;99.90;;;;;;7284515;19;20192;-78
2023/06/28 04:01:02;;;;;;;6.37;2.50;;;19.20;99.90;;;;;;7284710;19;20192;-77
2023/06/28 04:03:28;;;;;;;9.60;2.90;;;19.30;99.90;;;;;;7283574;19;20192;-78
2023/06/28 04:05:53;;;;;;;7.23;2.70;;;19.30;99.90;;;;;;7307008;19;20207;-78
2023/06/28 04:08:19;;;;;;;9.20;2.80;;;19.30;99.90;;;;;;7281526;19;20188;-77
2023/06/28 04:10:45;;;;;;;8.60;2.70;;;19.30;99.90;;;;;;7283870;19;20194;-78
2023/06/28 04:13:11;;;;;;;12.20;3.00;;;19.30;99.90;;;;;;7284985;19;20190;-78
2023/06/28 04:15:37;;;;;;;8.17;2.50;;;19.30;99.90;;;;;;7283742;19;20280;-77
2023/06/28 04:18:03;;;;;;;12.00;3.10;;;19.20;99.90;;;;;;7283792;19;20221;-78
2023/06/28 04:20:28;;;;;;;8.87;2.53;;;19.10;99.90;;;;;;7282882;19;20655;-78
2023/06/28 04:22:54;;;;;;;9.83;2.83;;;19.20;99.90;;;;;;7305568;19;20691;-78
2023/06/28 04:25:20;;;;;;;12.47;2.53;;;19.20;99.90;;;;;;7285412;19;20562;-78
2023/06/28 04:27:45;;;;;;;8.83;2.70;;;19.30;99.90;;;;;;7284922;19;20264;-78
2023/06/28 04:30:11;;;;;;;10.03;3.13;;;19.30;99.90;;;;;;7283914;19;20210;-78
2023/06/28 04:32:37;;;;;;;7.83;2.60;;;19.30;99.90;;;;;;7283017;19;20526;-78
2023/06/28 04:35:03;;;;;;;7.37;2.67;;;19.30;99.90;;;;;;7283455;19;20671;-78
2023/06/28 04:37:31;;;;;;;7.80;2.57;;;19.40;99.90;;;;;;7283591;19;20187;-78
2023/06/28 04:40:04;;;;;;;13.67;3.43;;;19.40;99.90;;;;;;7289514;19;20184;-78
2023/06/28 04:42:30;;;;;;;11.23;2.47;;;19.30;99.90;;;;;;7282476;19;20590;-78
2023/06/28 04:45:01;;;;;;;13.37;3.30;;;19.30;99.90;;;;;;7303494;19;20243;-78
2023/06/28 04:47:28;;;;;;;11.70;3.20;;;19.30;99.90;;;;;;7286981;19;20187;-77
2023/06/28 04:49:54;;;;;;;10.97;2.60;;;19.30;99.90;;;;;;7305660;19;20710;-77
2023/06/28 04:52:21;;;;;;;9.97;2.83;;;19.30;99.90;;;;;;7284954;19;20276;-78
2023/06/28 04:54:48;;;;;;;9.23;2.77;;;19.30;99.90;;;;;;7282290;19;20180;-77
2023/06/28 04:57:15;;;;;;;10.07;2.70;;;19.30;99.90;;;;;;7281592;19;20218;-77
2023/06/28 04:59:41;;;;;;;12.13;3.57;;;19.30;99.90;;;;;;7282100;19;20185;-77
2023/06/28 05:02:09;;;;;;;13.03;3.13;;;19.30;99.90;;;;;;7282912;19;20230;-77
2023/06/28 05:04:35;;;;;;;10.97;2.83;;;19.30;99.90;;;;;;7280768;19;20195;-77
2023/06/28 05:07:03;;;;;;;10.63;3.30;;;19.30;99.90;;;;;;7283164;19;20203;-77
2023/06/28 05:09:29;;;;;;;11.47;3.07;;;19.30;99.90;;;;;;7281720;19;20195;-77
2023/06/28 05:11:55;;;;;;;10.57;2.97;;;19.30;99.90;;;;;;7303689;19;20194;-77
2023/06/28 05:14:22;;;;;;;10.50;3.37;;;19.40;99.90;;;;;;7282973;19;20193;-78
2023/06/28 05:16:48;;;;;;;11.03;3.73;;;19.60;99.90;;;;;;7282970;19;20255;-78
2023/06/28 05:19:14;;;;;;;9.83;3.23;;;19.80;99.90;;;;;;7281876;19;20210;-77
2023/06/28 05:21:39;;;;;;;10.17;3.20;;;19.90;99.90;;;;;;7277383;19;20205;-76
2023/06/28 05:24:06;;;;;;;11.77;3.77;;;20.00;99.90;;;;;;7281831;19;20219;-76
2023/06/28 05:26:31;;;;;;;14.07;3.27;;;20.10;99.90;;;;;;7280294;19;20676;-77
2023/06/28 05:28:57;;;;;;;11.40;3.03;;;20.10;99.90;;;;;;7282841;19;20192;-77
2023/06/28 05:31:22;;;;;;;13.27;3.50;;;20.20;99.90;;;;;;7302264;19;20200;-77
2023/06/28 05:33:48;;;;;;;9.70;3.30;;;20.40;99.90;;;;;;7279825;19;20194;-77
2023/06/28 05:36:14;;;;;;;8.73;3.00;;;20.40;99.90;;;;;;7281313;19;20553;-78
2023/06/28 05:38:40;;;;;;;11.30;3.33;;;20.50;99.90;;;;;;7280481;19;20264;-77
2023/06/28 05:41:14;;;;;;;8.70;3.20;;;20.70;99.90;;;;;;7281588;19;20195;-77
2023/06/28 05:43:43;;;;;;;13.50;3.33;;;20.80;99.90;;;;;;7279848;19;20264;-77
2023/06/28 05:46:09;;;;;;;12.67;3.37;;;20.90;99.90;;;;;;7281878;19;20208;-79
2023/06/28 05:48:35;;;;;;;13.47;3.43;;;21.00;99.90;;;;;;7281174;19;20188;-77
2023/06/28 05:51:01;;;;;;;11.43;3.30;;;21.20;99.90;;;;;;7280748;19;20190;-77
2023/06/28 05:53:29;;;;;;;10.17;3.07;;;21.30;99.90;;;;;;7291390;19;20185;-77
2023/06/28 05:55:55;;;;;;;7.60;3.10;;;21.30;99.90;;;;;;7303366;19;21015;-79
2023/06/28 05:58:21;;;;;;;14.57;3.47;;;21.20;99.90;;;;;;7283918;19;20201;-79
2023/06/28 06:00:47;;;;;;;11.03;3.03;;;21.20;99.90;;;;;;7283605;19;20178;-78
2023/06/28 06:03:13;;;;;;;10.80;3.30;;;21.20;99.90;;;;;;7282229;19;20202;-78
2023/06/28 06:05:39;;;;;;;10.00;3.50;;;21.10;99.90;;;;;;7283115;19;20193;-78
2023/06/28 06:08:05;;;;;;;10.40;2.97;;;21.10;99.90;;;;;;7281686;19;20188;-80
2023/06/28 06:10:31;;;;;;;10.87;3.77;;;21.20;99.90;;;;;;7285689;19;20199;-80
2023/06/28 06:12:57;;;;;;;7.13;2.90;;;21.30;99.90;;;;;;7290372;19;20533;-78
2023/06/28 06:15:22;;;;;;;9.90;2.93;;;21.50;99.90;;;;;;7305628;19;20645;-79
2023/06/28 06:17:52;;;;;;;10.50;3.30;;;21.60;99.90;;;;;;7283645;19;20299;-80
2023/06/28 06:20:18;;;;;;;9.23;3.17;;;21.60;99.90;;;;;;7283345;19;20203;-80
2023/06/28 06:22:44;;;;;;;8.67;3.27;;;21.60;99.90;;;;;;7281704;19;20192;-80
2023/06/28 06:25:10;;;;;;;10.20;3.10;;;21.50;99.90;;;;;;7281593;19;20212;-83
2023/06/28 06:27:36;;;;;;;11.33;3.23;;;21.50;99.90;;;;;;7282031;19;20197;-82
2023/06/28 06:30:03;;;;;;;8.90;3.33;;;21.50;99.90;;;;;;7282078;19;20228;-82
2023/06/28 06:32:29;;;;;;;12.07;3.20;;;21.40;99.90;;;;;;7286040;19;20198;-83
2023/06/28 06:34:58;;;;;;;11.33;3.53;;;21.20;99.90;;;;;;7310623;19;20184;-83
2023/06/28 06:37:24;;;;;;;8.03;3.50;;;21.20;99.90;;;;;;7288365;19;20563;-83
2023/06/28 06:39:50;;;;;;;11.47;3.83;;;21.20;99.90;;;;;;7289041;19;20193;-83
2023/06/28 06:42:16;;;;;;;11.83;3.90;;;21.20;99.90;;;;;;7288956;19;20668;-82
2023/06/28 06:44:41;;;;;;;11.97;3.67;;;21.30;99.90;;;;;;7288518;19;20216;-83
2023/06/28 06:47:07;;;;;;;12.40;3.87;;;21.40;99.90;;;;;;7288800;19;20533;-83
2023/06/28 06:49:33;;;;;;;17.67;3.87;;;21.30;99.90;;;;;;7288428;19;20360;-83
2023/06/28 06:52:00;;;;;;;15.90;3.70;;;21.20;99.90;;;;;;7286755;19;20189;-82
2023/06/28 06:54:29;;;;;;;11.13;3.73;;;21.30;99.90;;;;;;7307481;19;21054;-81
2023/06/28 06:56:56;;;;;;;10.57;3.93;;;21.30;99.90;;;;;;7310633;19;20185;-83
2023/06/28 06:59:23;;;;;;;11.97;4.00;;;21.50;99.90;;;;;;7288565;19;20185;-82
2023/06/28 07:01:53;;;;;;;12.10;4.07;;;21.50;99.90;;;;;;7287538;19;20220;-83
2023/06/28 07:04:21;;;;;;;12.83;4.03;;;21.70;99.90;;;;;;7287763;19;20296;-83
2023/06/28 07:06:47;;;;;;;16.70;4.17;;;21.70;99.90;;;;;;7289366;19;20185;-82
2023/06/28 07:09:16;;;;;;;12.17;3.90;;;21.70;99.90;;;;;;7286840;19;20579;-83
2023/06/28 07:11:43;;;;;;;12.80;4.50;;;21.70;99.90;;;;;;7287487;19;20217;-83
2023/06/28 07:14:09;;;;;;;17.93;4.57;;;21.80;99.90;;;;;;7288584;19;20185;-83
2023/06/28 07:16:35;;;;;;;15.33;4.17;;;21.90;99.90;;;;;;7287616;19;20210;-83
2023/06/28 07:19:02;;;;;;;15.33;5.13;;;21.90;99.90;;;;;;7287356;19;20185;-83
2023/06/28 07:21:27;;;;;;;14.90;4.33;;;21.60;99.90;;;;;;7288012;19;20200;-83
2023/06/28 07:23:54;;;;;;;20.13;5.37;;;21.60;99.90;;;;;;7309480;19;20189;-83
2023/06/28 07:26:20;;;;;;;19.60;4.93;;;21.80;99.90;;;;;;7288330;19;20260;-84
2023/06/28 07:28:46;;;;;;;19.97;5.40;;;21.90;99.90;;;;;;7286969;19;20235;-83
2023/06/28 07:31:12;;;;;;;12.83;4.90;;;22.00;99.90;;;;;;7287356;19;20232;-83
2023/06/28 07:33:39;;;;;;;13.60;4.40;;;22.00;99.90;;;;;;7286606;19;20218;-83
2023/06/28 07:36:05;;;;;;;15.03;4.70;;;22.10;99.90;;;;;;7286502;19;20461;-83
2023/06/28 07:38:30;;;;;;;13.37;4.63;;;22.20;99.90;;;;;;7287069;19;20664;-83
2023/06/28 07:40:56;;;;;;;13.80;4.43;;;22.50;99.90;;;;;;7301174;19;20205;-83
2023/06/28 07:43:22;;;;;;;15.13;4.80;;;22.80;99.90;;;;;;7302226;19;20683;-84
2023/06/28 07:45:48;;;;;;;13.27;4.73;;;22.90;99.90;;;;;;7287551;19;20680;-83
2023/06/28 07:48:14;;;;;;;13.43;4.73;;;23.10;99.90;;;;;;7287820;19;20252;-84
2023/06/28 07:50:40;;;;;;;13.93;4.57;;;23.30;99.90;;;;;;7287187;19;20184;-83
2023/06/28 07:53:06;;;;;;;15.83;4.13;;;23.50;99.90;;;;;;7284740;19;20193;-83
2023/06/28 07:55:32;;;;;;;16.27;4.57;;;23.50;99.90;;;;;;7286505;19;20188;-82
2023/06/28 07:57:58;;;;;;;15.20;4.40;;;23.60;99.90;;;;;;7286171;19;20269;-83
2023/06/28 08:00:27;;;;;;;13.00;4.45;;;23.80;99.90;;;;;;7307709;19;20621;-83
2023/06/28 08:02:52;;;;;;;14.77;4.60;;;24.20;99.90;;;;;;7285981;19;20193;-83
2023/06/28 08:05:19;;;;;;;12.90;4.07;;;24.40;99.90;;;;;;7286853;19;20207;-83
2023/06/28 08:07:46;;;;;;;14.65;4.80;;;24.70;99.90;;;;;;7285993;19;20196;-84
2023/06/28 08:10:13;;;;;;;15.45;4.38;;;25.00;99.90;;;;;;7286395;19;20192;-83
2023/06/28 08:12:38;;;;;;;13.73;4.45;;;26.40;99.90;;;;;;7287581;19;20181;-83
2023/06/28 08:15:05;;;;;;;13.40;4.43;;;27.50;99.90;;;;;;7287231;19;20323;-83
2023/06/28 08:17:30;;;;;;;13.57;4.10;;;27.90;99.90;;;;;;7286422;19;20188;-83
2023/06/28 08:19:56;;;;;;;13.90;4.30;;;29.70;99.90;;;;;;7302800;19;20188;-82
2023/06/28 08:22:22;;;;;;;13.48;4.43;;;32.00;99.90;;;;;;7299256;19;20281;-83
2023/06/28 08:24:48;;;;;;;13.05;3.97;;;33.90;99.90;;;;;;7285686;19;20203;-83
2023/06/28 08:27:14;;;;;;;15.77;4.00;;;35.10;99.90;;;;;;7286634;19;20256;-83
2023/06/28 08:29:41;;;;;;;11.13;3.65;;;35.30;97.40;;;;;;7286681;19;20213;-83
2023/06/28 08:32:09;;;;;;;13.43;3.88;;;34.70;96.70;;;;;;7285501;19;20192;-83
2023/06/28 08:34:35;;;;;;;13.32;3.90;;;34.60;96.10;;;;;;7287293;19;20189;-83
2023/06/28 08:37:00;;;;;;;12.15;3.85;;;33.60;95.20;;;;;;7285509;19;20200;-83
2023/06/28 08:39:26;;;;;;;12.95;3.78;;;32.60;96.20;;;;;;7302549;19;20192;-83
2023/06/28 08:41:53;;;;;;;13.18;4.07;;;32.00;97.60;;;;;;7297905;19;20185;-83
2023/06/28 08:44:20;;;;;;;11.73;3.60;;;31.80;98.70;;;;;;7286099;19;20189;-83
2023/06/28 08:46:48;;;;;;;13.00;3.67;;;31.70;99.10;;;;;;7284831;19;20653;-83
2023/06/28 08:49:15;;;;;;;12.25;3.75;;;31.90;99.80;;;;;;7285826;19;20196;-81
2023/06/28 08:51:41;;;;;;;12.98;4.05;;;31.40;99.90;;;;;;7286223;19;20230;-81
2023/06/28 08:54:12;;;;;;;10.55;4.07;;;31.30;99.90;;;;;;7285502;19;20698;-82
2023/06/28 08:56:39;;;;;;;12.95;4.25;;;31.60;99.90;;;;;;7284568;19;20189;-81
2023/06/28 08:59:05;;;;;;;11.52;4.13;;;31.00;99.90;;;;;;7285080;19;20267;-81
2023/06/28 09:01:32;;;;;;;14.73;4.10;;;30.70;99.90;;;;;;7283690;19;20197;-80
2023/06/28 09:03:59;;;;;;;15.63;4.60;;;30.40;99.90;;;;;;7284189;19;20193;-80
2023/06/28 09:06:27;;;;;;;13.38;4.20;;;30.30;99.90;;;;;;7308132;19;20498;-81
2023/06/28 09:08:54;;;;;;;18.58;5.00;;;29.50;99.90;;;;;;7286360;19;20200;-81
2023/06/28 09:11:20;;;;;;;17.20;5.10;;;29.30;99.90;;;;;;7286186;19;20201;-81
2023/06/28 09:13:46;;;;;;;12.07;4.43;;;29.10;99.90;;;;;;7285835;19;20202;-81
2023/06/28 09:16:12;;;;;;;12.40;4.60;;;28.50;99.90;;;;;;7285961;19;20555;-81
2023/06/28 09:18:37;;;;;;;14.32;4.45;;;28.50;99.90;;;;;;7285687;19;20197;-81
2023/06/28 09:21:04;;;;;;;17.77;5.53;;;28.30;99.90;;;;;;7286432;19;20204;-81
2023/06/28 09:23:32;;;;;;;12.85;4.88;;;28.50;99.90;;;;;;7284356;19;20193;-81
2023/06/28 09:25:58;;;;;;;17.30;5.10;;;28.60;99.90;;;;;;7286120;19;20228;-81
2023/06/28 09:28:32;;;;;;;13.48;4.75;;;29.00;99.90;;;;;;7306242;19;21004;-81
2023/06/28 09:30:58;;;;;;;15.65;4.80;;;29.30;99.90;;;;;;7266257;19;20687;-81
2023/06/28 09:33:24;;;;;;;13.02;4.15;;;29.60;99.90;;;;;;7308350;19;20180;-82
2023/06/28 09:35:57;;;;;;;13.23;4.60;;;29.90;99.90;;;;;;7290849;19;20211;-82
2023/06/28 09:38:24;;;;;;;14.23;5.07;;;29.70;99.90;;;;;;7289800;19;20185;-81
2023/06/28 09:41:01;;;;;;;10.93;4.60;;;29.50;99.90;;;;;;7288857;19;20189;-81
2023/06/28 09:43:32;;;;;;;12.07;5.03;;;29.70;99.90;;;;;;7273432;19;20200;-82
2023/06/28 09:46:16;;;;;;;14.70;5.45;;;29.50;99.90;;;;;;7285945;19;20191;-82
2023/06/28 09:48:45;;;;;;;10.02;4.57;;;29.90;99.90;;;;;;7285242;19;20534;-82
2023/06/28 09:51:17;;;;;;;14.93;4.85;;;31.00;99.90;;;;;;7282922;19;20616;-82
2023/06/28 09:53:52;;;;;;;14.52;6.00;;;31.50;99.90;;;;;;7282454;19;20193;-81
2023/06/28 09:56:19;;;;;;;13.75;5.20;;;32.80;99.90;;;;;;7282540;19;20188;-84
2023/06/28 09:58:48;;;;;;;12.70;5.40;;;33.60;99.90;;;;;;7284477;19;20185;-82
2023/06/28 10:01:15;;;;;;;15.02;5.28;;;33.10;99.90;;;;;;7282846;19;20189;-82
2023/06/28 10:03:45;;;;;;;12.55;5.32;;;34.10;99.90;;;;;;7282082;19;20192;-82
2023/06/28 10:06:12;;;;;;;13.93;5.68;;;34.10;99.50;;;;;;7283713;19;20201;-82
2023/06/28 10:08:39;;;;;;;12.18;5.30;;;33.40;98.80;;;;;;7289411;19;20222;-82
2023/06/28 10:11:12;;;;;;;14.43;5.53;;;33.20;99.90;;;;;;7289836;19;20184;-82
2023/06/28 10:13:40;;;;;;;15.20;5.50;;;32.60;99.90;;;;;;7288957;19;20184;-81
2023/06/28 10:16:30;;;;;;;13.00;5.70;;;32.60;99.90;;;;;;7288650;19;20642;-82
2023/06/28 10:18:55;;;;;;;15.05;6.20;;;32.00;99.90;;;;;;7288750;19;20188;-82
2023/06/28 10:21:22;;;;;;;16.90;5.75;;;31.70;99.90;;;;;;7291679;19;20601;-82
2023/06/28 10:23:48;;;;;;;13.55;5.50;;;31.90;99.90;;;;;;7288123;19;20188;-82
2023/06/28 10:26:14;;;;;;;15.15;6.22;;;32.90;99.90;;;;;;7289450;19;20605;-82
2023/06/28 10:28:41;;;;;;;11.45;5.97;;;33.80;98.90;;;;;;7289140;19;20205;-83
2023/06/28 10:31:07;;;;;;;13.90;6.45;;;33.30;99.10;;;;;;7287940;19;20189;-83
2023/06/28 10:33:36;;;;;;;13.30;6.22;;;33.80;99.70;;;;;;7289628;19;20177;-82
2023/06/28 10:36:03;;;;;;;13.25;6.75;;;34.90;98.60;;;;;;7288310;19;20185;-81
2023/06/28 10:38:50;;;;;;;15.55;6.40;;;34.90;95.90;;;;;;7289062;19;20184;-80
2023/06/28 10:41:16;;;;;;;14.70;6.68;;;35.00;95.60;;;;;;7288154;19;20212;-80
2023/06/28 10:43:43;;;;;;;15.23;7.32;;;35.70;94.70;;;;;;7288315;19;20192;-81
2023/06/28 10:46:25;;;;;;;15.85;7.00;;;35.20;93.70;;;;;;7289161;19;20199;-81
2023/06/28 10:49:02;;;;;;;15.43;7.10;;;34.90;93.70;;;;;;7288732;19;20181;-81
2023/06/28 10:51:30;;;;;;;13.25;6.22;;;34.90;94.00;;;;;;7269723;19;20678;-81
2023/06/28 10:54:13;;;;;;;18.83;8.65;;;34.90;93.90;;;;;;7310068;19;20222;-79
2023/06/28 10:56:49;;;;;;;18.58;8.88;;;34.20;94.00;;;;;;7185294;19;2005165;-81
2023/06/28 10:59:16;;;;;;;20.17;9.18;;;33.20;96.30;;;;;;7287189;19;20544;-81
2023/06/28 11:01:55;;;;;;;20.05;8.35;;;32.10;97.80;;;;;;7286896;19;20213;-80
2023/06/28 11:04:25;;;;;;;19.80;8.80;;;32.30;98.80;;;;;;7286579;19;20193;-80
2023/06/28 11:07:14;;;;;;;16.77;8.70;;;31.80;99.60;;;;;;7288733;19;20208;-81
2023/06/28 11:09:40;;;;;;;14.55;8.82;;;31.60;99.80;;;;;;7184670;19;2004398;-81
2023/06/28 11:12:13;;;;;;;19.15;9.63;;;32.30;99.80;;;;;;7288076;19;20197;-80
2023/06/28 11:14:38;;;;;;;16.60;9.15;;;32.60;99.00;;;;;;7289373;19;20260;-80
2023/06/28 11:17:14;;;;;;;17.50;8.93;;;33.00;99.40;;;;;;7288920;19;20610;-80
2023/06/28 11:19:42;;;;;;;18.27;9.85;;;34.20;97.10;;;;;;7284880;19;20193;-80
2023/06/28 11:22:08;;;;;;;20.20;9.45;;;34.20;96.30;;;;;;7287687;19;20248;-79
2023/06/28 11:24:33;;;;;;;19.95;9.20;;;35.00;96.10;;;;;;7287723;19;20201;-80
2023/06/28 11:27:00;;;;;;;17.40;8.57;;;34.10;95.10;;;;;;7287480;19;20180;-80
2023/06/28 11:29:26;;;;;;;20.05;9.90;;;34.60;96.30;;;;;;7309657;19;20185;-80
2023/06/28 11:31:55;;;;;;;22.90;11.00;;;33.70;97.20;;;;;;7287323;19;20196;-80
2023/06/28 11:34:22;;;;;;;20.80;9.77;;;32.70;96.50;;;;;;7289751;19;20189;-80
2023/06/28 11:36:49;;;;;;;19.83;9.88;;;31.70;99.70;;;;;;7287388;19;20197;-80
2023/06/28 11:39:16;;;;;;;17.58;9.20;;;31.90;99.10;;;;;;7288022;19;20616;-80
2023/06/28 11:41:43;;;;;;;19.50;9.63;;;32.00;99.80;;;;;;7286159;19;20196;-80
2023/06/28 11:44:09;;;;;;;20.05;9.15;;;32.00;99.90;;;;;;7286718;19;20192;-80
2023/06/28 11:46:36;;;;;;;17.98;8.82;;;32.10;98.80;;;;;;7284661;19;20185;-82
2023/06/28 11:49:03;;;;;;;18.27;9.85;;;32.30;99.90;;;;;;7286055;19;20193;-82
2023/06/28 11:51:30;;;;;;;20.05;9.57;;;32.30;98.60;;;;;;7285655;19;20186;-82
2023/06/28 11:53:56;;;;;;;17.88;9.60;;;32.40;99.60;;;;;;7309130;19;20189;-82
2023/06/28 11:56:39;;;;;;;20.20;9.95;;;32.30;99.90;;;;;;7285796;19;20184;-83
2023/06/28 11:59:11;;;;;;;20.38;10.45;;;32.80;98.10;;;;;;7184893;19;2005023;-83
2023/06/28 12:01:37;;;;;;;20.73;10.07;;;32.60;98.90;;;;;;7286377;19;20188;-82
2023/06/28 12:04:13;;;;;;;18.88;9.80;;;32.70;99.70;;;;;;7287033;19;20647;-82
2023/06/28 12:06:41;;;;;;;17.95;9.63;;;32.80;99.20;;;;;;7286056;19;20204;-83
2023/06/28 12:09:28;;;;;;;19.10;9.73;;;32.50;98.60;;;;;;7284167;19;20193;-83
2023/06/28 12:12:05;;;;;;;20.00;10.05;;;32.50;99.70;;;;;;7286235;19;20189;-83
2023/06/28 12:14:38;;;;;;;18.00;9.73;;;32.50;99.00;;;;;;7264406;19;20200;-83
2023/06/28 12:17:04;;;;;;;20.83;10.48;;;32.00;99.90;;;;;;7286169;19;20192;-83
2023/06/28 12:19:33;;;;;;;17.10;9.93;;;32.00;99.80;;;;;;7285489;19;20688;-82
2023/06/28 12:22:06;;;;;;;22.58;12.02;;;31.70;99.80;;;;;;7286502;19;20236;-83
2023/06/28 12:24:37;;;;;;;17.95;10.27;;;31.70;99.90;;;;;;7285465;19;20200;-82
2023/06/28 12:27:05;;;;;;;20.92;12.02;;;32.00;99.90;;;;;;7283926;19;20192;-82
2023/06/28 12:29:35;;;;;;;20.75;10.55;;;31.80;99.70;;;;;;7284215;19;20203;-82
2023/06/28 12:32:05;;;;;;;20.73;11.02;;;31.80;99.30;;;;;;7283551;19;20652;-83
2023/06/28 12:34:34;;;;;;;19.48;10.60;;;31.30;99.90;;;;;;7283712;19;20192;-82
2023/06/28 12:37:07;;;;;;;18.00;9.50;;;31.40;99.90;;;;;;7284046;19;20726;-82
2023/06/28 12:39:35;;;;;;;21.10;12.93;;;31.50;99.90;;;;;;7287052;19;20193;-82
2023/06/28 12:42:18;;;;;;;22.50;13.90;;;31.40;98.40;;;;;;7280780;19;20189;-83